createdAt,value
2024-05-09T00:03:33.959Z,7.10
2024-05-09T00:09:55.514Z,7.40
2024-05-09T00:16:17.018Z,8.00
2024-05-09T00:21:42.835Z,8.50
2024-05-09T00:27:44.423Z,7.40
2024-05-09T00:34:06.033Z,9.20
2024-05-09T00:40:37.232Z,9.00
2024-05-09T00:46:02.092Z,8.90
2024-05-09T00:51:04.742Z,8.50
2024-05-09T00:56:09.864Z,7.80
2024-05-09T01:02:11.667Z,9.20
2024-05-09T01:08:34.064Z,8.70
2024-05-09T01:14:52.054Z,8.60
2024-05-09T01:20:53.613Z,9.30
2024-05-09T01:27:15.134Z,10.10
2024-05-09T01:33:37.108Z,10.10
2024-05-09T01:38:59.271Z,8.60
2024-05-09T01:44:01.198Z,7.70
2024-05-09T01:49:04.590Z,7.00
2024-05-09T01:54:06.564Z,6.90
2024-05-09T02:00:10.244Z,8.00
2024-05-09T02:06:32.048Z,6.80
2024-05-09T02:12:53.600Z,6.80
2024-05-09T02:19:15.298Z,7.30
2024-05-09T02:24:38.655Z,7.20
2024-05-09T02:30:39.818Z,7.50
2024-05-09T02:35:44.303Z,8.30
2024-05-09T02:40:46.444Z,9.00
2024-05-09T02:45:48.819Z,9.10
2024-05-09T02:51:50.590Z,9.10
2024-05-09T02:58:12.065Z,8.40
2024-05-09T03:03:34.476Z,7.80
2024-05-09T03:09:36.285Z,7.80
2024-05-09T03:15:57.749Z,9.90
2024-05-09T03:22:29.212Z,9.20
2024-05-09T03:28:50.716Z,8.30
2024-05-09T03:34:54.426Z,9.20
2024-05-09T03:39:56.353Z,8.90
2024-05-09T03:44:58.304Z,8.40
2024-05-09T03:50:00.282Z,9.10
2024-05-09T03:56:01.943Z,7.90
2024-05-09T04:02:23.724Z,9.10
2024-05-09T04:08:45.501Z,8.60
2024-05-09T04:15:09.664Z,9.30
2024-05-09T04:20:38.714Z,7.80
2024-05-09T04:26:42.244Z,9.20
2024-05-09T04:32:05.253Z,9.30
2024-05-09T04:37:07.229Z,9.40
2024-05-09T04:42:09.237Z,9.90
2024-05-09T04:48:14.861Z,9.40
2024-05-09T04:53:17.069Z,9.80
2024-05-09T04:59:18.937Z,10.00
2024-05-09T05:05:22.794Z,10.00
2024-05-09T05:11:44.536Z,9.60
2024-05-09T05:17:06.496Z,9.80
2024-05-09T05:23:08.127Z,9.70
2024-05-09T05:29:29.715Z,10.10
2024-05-09T05:35:51.271Z,10.20
2024-05-09T05:41:13.121Z,8.90
2024-05-09T05:46:14.982Z,8.10
2024-05-09T05:51:16.709Z,8.90
2024-05-09T05:57:18.311Z,7.10
2024-05-09T06:03:39.927Z,7.80
2024-05-09T06:10:01.526Z,7.50
2024-05-09T06:15:23.195Z,7.50
2024-05-09T06:20:34.577Z,6.80
2024-05-09T06:26:38.762Z,7.70
2024-05-09T06:32:20.441Z,7.40
2024-05-09T06:37:22.764Z,7.80
2024-05-09T06:42:24.550Z,7.30
2024-05-09T06:48:26.220Z,8.90
2024-05-09T06:54:47.786Z,11.50
2024-05-09T07:01:09.435Z,8.80
2024-05-09T07:07:30.906Z,7.90
2024-05-09T07:12:53.011Z,7.80
2024-05-09T07:17:54.938Z,8.00
2024-05-09T07:23:56.887Z,6.90
2024-05-09T07:29:39.396Z,29.10
2024-05-09T07:34:41.350Z,8.60
2024-05-09T07:40:42.895Z,6.90
2024-05-09T07:48:14.305Z,13.40
2024-05-09T07:53:49.427Z,7.60
2024-05-09T07:59:41.480Z,6.50
2024-05-09T08:04:43.370Z,7.50
2024-05-09T08:09:45.868Z,7.20
2024-05-09T08:15:47.538Z,6.20
2024-05-09T08:22:09.263Z,6.90
2024-05-09T08:28:31.144Z,6.20
2024-05-09T08:34:52.710Z,6.00
2024-05-09T08:41:24.266Z,6.30
2024-05-09T08:47:45.905Z,6.50
2024-05-09T08:53:47.494Z,5.90
2024-05-09T08:59:49.065Z,7.20
2024-05-09T09:06:10.595Z,6.60
2024-05-09T09:12:32.126Z,6.30
2024-05-09T09:18:44.874Z,6.60
2024-05-09T09:24:46.803Z,5.90
2024-05-09T09:31:08.651Z,5.80
2024-05-09T09:37:30.241Z,5.90
2024-05-09T09:43:51.745Z,5.20
2024-05-09T09:50:17.076Z,5.30
2024-05-09T09:56:42.481Z,5.40
2024-05-09T10:03:04.044Z,4.90
2024-05-09T10:09:25.543Z,5.30
2024-05-09T10:14:53.611Z,5.90
2024-05-09T10:20:14.440Z,3.30
2024-05-09T10:25:23.739Z,4.90
2024-05-09T10:30:34.038Z,6.00
2024-05-09T10:35:38.285Z,5.00
2024-05-09T10:41:39.800Z,4.60
2024-05-09T10:48:01.582Z,4.60
2024-05-09T10:54:23.140Z,4.50
2024-05-09T11:00:45.177Z,4.90
2024-05-09T11:06:08.087Z,5.10
2024-05-09T11:11:10.590Z,5.00
2024-05-09T11:16:20.617Z,5.50
2024-05-09T11:22:22.599Z,4.80
2024-05-09T11:27:44.336Z,4.00
2024-05-09T11:33:46.018Z,5.50
2024-05-09T11:40:13.739Z,4.20
2024-05-09T11:46:42.338Z,4.40
2024-05-09T11:52:04.328Z,4.70
2024-05-09T11:57:06.473Z,4.50
2024-05-09T12:02:08.561Z,4.40
2024-05-09T12:07:12.898Z,4.00
2024-05-09T12:12:15.161Z,4.40
2024-05-09T12:17:17.090Z,4.60
2024-05-09T12:22:19.146Z,4.50
2024-05-09T12:27:21.092Z,4.70
2024-05-09T12:32:23.277Z,3.90
2024-05-09T12:37:25.723Z,3.90
2024-05-09T12:42:29.077Z,4.10
2024-05-09T12:47:31.820Z,3.10
2024-05-09T12:53:33.507Z,3.60
2024-05-09T12:58:55.240Z,4.20
2024-05-09T13:03:57.255Z,4.20
2024-05-09T13:08:59.200Z,4.00
2024-05-09T13:14:01.078Z,3.70
2024-05-09T13:20:04.270Z,3.50
2024-05-09T13:26:27.049Z,3.30
2024-05-09T13:32:48.684Z,3.80
2024-05-09T13:39:10.298Z,3.30
2024-05-09T13:45:31.943Z,3.50
2024-05-09T13:51:53.700Z,3.90
2024-05-09T13:57:16.548Z,3.60
2024-05-09T14:02:18.771Z,4.20
2024-05-09T14:07:21.194Z,3.70
2024-05-09T14:12:23.029Z,4.30
2024-05-09T14:17:24.957Z,3.90
2024-05-09T14:22:26.788Z,3.90
2024-05-09T14:27:29.587Z,4.10
2024-05-09T14:32:31.576Z,4.30
2024-05-09T14:37:36.329Z,3.90
2024-05-09T14:42:39.854Z,3.60
2024-05-09T14:47:41.905Z,4.60
2024-05-09T14:52:43.750Z,3.90
2024-05-09T14:57:45.628Z,4.00
2024-05-09T15:02:48.041Z,3.60
2024-05-09T15:07:50.061Z,4.10
2024-05-09T15:13:51.579Z,3.90
2024-05-09T15:19:13.602Z,4.20
2024-05-09T15:25:15.467Z,4.00
2024-05-09T15:31:37.230Z,3.40
2024-05-09T15:37:58.692Z,3.80
2024-05-09T15:44:20.131Z,3.70
2024-05-09T15:50:42.830Z,4.20
2024-05-09T15:56:48.435Z,4.00
2024-05-09T16:02:11.396Z,4.10
2024-05-09T16:07:13.605Z,4.10
2024-05-09T16:12:15.629Z,4.00
2024-05-09T16:17:17.672Z,4.10
2024-05-09T16:22:19.617Z,3.90
2024-05-09T16:27:22.104Z,3.70
2024-05-09T16:32:24.064Z,4.00
2024-05-09T16:37:29.409Z,3.90
2024-05-09T16:42:31.879Z,4.70
2024-05-09T16:47:34.166Z,3.80
2024-05-09T16:52:36.181Z,4.10
2024-05-09T16:57:38.369Z,3.30
2024-05-09T17:02:43.721Z,4.40
2024-05-09T17:07:47.437Z,4.00
2024-05-09T17:13:49.180Z,3.70
2024-05-09T17:20:22.552Z,4.60
2024-05-09T17:26:50.510Z,4.60
2024-05-09T17:33:13.017Z,4.10
2024-05-09T17:39:35.123Z,3.80
2024-05-09T17:45:56.708Z,4.80
2024-05-09T17:52:18.580Z,4.70
2024-05-09T17:57:21.018Z,5.70
2024-05-09T18:02:24.182Z,4.10
2024-05-09T18:07:26.410Z,5.00
2024-05-09T18:12:28.548Z,4.90
2024-05-09T18:17:30.872Z,5.10
2024-05-09T18:22:33.071Z,4.20
2024-05-09T18:27:34.882Z,5.00
2024-05-09T18:32:36.733Z,4.50
2024-05-09T18:37:40.119Z,4.50
2024-05-09T18:42:42.208Z,4.40
2024-05-09T18:47:44.176Z,4.70
2024-05-09T18:52:46.315Z,4.30
2024-05-09T18:57:48.316Z,4.70
2024-05-09T19:02:50.310Z,4.50
2024-05-09T19:07:52.309Z,5.00
2024-05-09T19:12:54.509Z,5.90
2024-05-09T19:17:56.910Z,5.80
2024-05-09T19:22:59.008Z,5.40
2024-05-09T19:28:01.339Z,6.10
2024-05-09T19:33:03.853Z,5.80
2024-05-09T19:38:06.188Z,5.70
2024-05-09T19:43:08.388Z,6.60
2024-05-09T19:49:10.543Z,6.70
2024-05-09T19:55:32.384Z,5.50
2024-05-09T20:00:54.533Z,5.60
2024-05-09T20:05:56.669Z,5.80
2024-05-09T20:10:58.733Z,5.40
2024-05-09T20:16:15.603Z,5.70
2024-05-09T20:21:17.467Z,6.00
2024-05-09T20:26:19.404Z,5.90
2024-05-09T20:31:21.629Z,6.80
2024-05-09T20:36:23.918Z,6.10
2024-05-09T20:41:25.972Z,6.30
2024-05-09T20:46:27.909Z,6.30
2024-05-09T20:51:30.430Z,6.20
2024-05-09T20:56:32.625Z,6.70
2024-05-09T21:01:34.721Z,7.90
2024-05-09T21:06:36.695Z,9.10
2024-05-09T21:11:38.962Z,7.60
2024-05-09T21:16:41.055Z,6.90
2024-05-09T21:22:43.127Z,6.90
2024-05-09T21:28:05.340Z,7.00
2024-05-09T21:33:13.303Z,7.90
2024-05-09T21:38:16.465Z,7.50
2024-05-09T21:44:17.996Z,6.40
2024-05-09T21:50:41.783Z,7.60
2024-05-09T21:57:04.184Z,7.90
2024-05-09T22:03:25.842Z,7.80
2024-05-09T22:09:47.578Z,7.30
2024-05-09T22:16:09.112Z,7.30
2024-05-09T22:21:30.997Z,7.20
2024-05-09T22:26:36.332Z,7.20
2024-05-09T22:31:38.282Z,7.20
2024-05-09T22:37:39.856Z,7.30
2024-05-09T22:44:01.376Z,7.20
2024-05-09T22:50:26.952Z,7.00
2024-05-09T23:02:54.057Z,10.30
2024-05-09T23:09:15.547Z,11.00
2024-05-09T23:15:37.167Z,11.00
2024-05-09T23:21:58.909Z,9.40
2024-05-09T23:27:20.816Z,8.70
2024-05-09T23:32:22.579Z,9.90
2024-05-09T23:37:25.875Z,9.90
2024-05-09T23:42:28.594Z,11.30
2024-05-09T23:48:30.240Z,11.10
2024-05-09T23:54:51.908Z,9.90
